sensor_id;sensor_type;location;lat;lon;timestamp;P1;durP1;ratioP1;P2;durP2;ratioP2
84780;SDS011;75011;50.086;19.886;2023-12-20T00:00:39;18.00;;;8.52;;
84780;SDS011;75011;50.086;19.886;2023-12-20T00:03:39;18.55;;;7.32;;
84780;SDS011;75011;50.086;19.886;2023-12-20T00:06:40;20.45;;;7.13;;
84780;SDS011;75011;50.086;19.886;2023-12-20T00:09:42;18.40;;;7.22;;
84780;SDS011;75011;50.086;19.886;2023-12-20T00:12:42;17.98;;;7.75;;
84780;SDS011;75011;50.086;19.886;2023-12-20T00:15:43;18.35;;;7.55;;
84780;SDS011;75011;50.086;19.886;2023-12-20T00:18:43;17.05;;;7.07;;
84780;SDS011;75011;50.086;19.886;2023-12-20T00:21:44;20.52;;;8.43;;
84780;SDS011;75011;50.086;19.886;2023-12-20T00:24:46;16.23;;;7.60;;
84780;SDS011;75011;50.086;19.886;2023-12-20T00:27:46;15.85;;;7.78;;
84780;SDS011;75011;50.086;19.886;2023-12-20T00:30:47;17.15;;;7.47;;
84780;SDS011;75011;50.086;19.886;2023-12-20T00:33:47;14.05;;;6.25;;
84780;SDS011;75011;50.086;19.886;2023-12-20T00:36:48;15.07;;;5.97;;
84780;SDS011;75011;50.086;19.886;2023-12-20T00:39:50;15.73;;;6.88;;
84780;SDS011;75011;50.086;19.886;2023-12-20T00:42:50;11.57;;;5.47;;
84780;SDS011;75011;50.086;19.886;2023-12-20T00:45:50;11.52;;;5.97;;
84780;SDS011;75011;50.086;19.886;2023-12-20T00:48:51;14.35;;;5.45;;
84780;SDS011;75011;50.086;19.886;2023-12-20T00:51:51;11.13;;;4.60;;
84780;SDS011;75011;50.086;19.886;2023-12-20T00:54:53;12.43;;;5.28;;
84780;SDS011;75011;50.086;19.886;2023-12-20T00:57:54;7.82;;;3.30;;
84780;SDS011;75011;50.086;19.886;2023-12-20T01:00:54;13.63;;;5.43;;
84780;SDS011;75011;50.086;19.886;2023-12-20T01:03:55;13.20;;;5.47;;
84780;SDS011;75011;50.086;19.886;2023-12-20T01:06:55;14.82;;;5.57;;
84780;SDS011;75011;50.086;19.886;2023-12-20T01:09:57;13.15;;;5.22;;
84780;SDS011;75011;50.086;19.886;2023-12-20T01:12:58;11.95;;;6.25;;
84780;SDS011;75011;50.086;19.886;2023-12-20T01:15:58;12.52;;;5.38;;
84780;SDS011;75011;50.086;19.886;2023-12-20T01:18:59;13.85;;;6.32;;
84780;SDS011;75011;50.086;19.886;2023-12-20T01:21:59;12.88;;;5.30;;
84780;SDS011;75011;50.086;19.886;2023-12-20T01:25:01;15.02;;;5.75;;
84780;SDS011;75011;50.086;19.886;2023-12-20T01:28:01;9.90;;;4.57;;
84780;SDS011;75011;50.086;19.886;2023-12-20T01:31:02;12.05;;;5.20;;
84780;SDS011;75011;50.086;19.886;2023-12-20T01:34:03;10.80;;;5.45;;
84780;SDS011;75011;50.086;19.886;2023-12-20T01:37:03;11.05;;;4.80;;
84780;SDS011;75011;50.086;19.886;2023-12-20T01:40:06;12.35;;;4.75;;
84780;SDS011;75011;50.086;19.886;2023-12-20T01:43:08;10.73;;;5.00;;
84780;SDS011;75011;50.086;19.886;2023-12-20T01:46:09;12.88;;;5.80;;
84780;SDS011;75011;50.086;19.886;2023-12-20T01:49:10;13.45;;;5.18;;
84780;SDS011;75011;50.086;19.886;2023-12-20T01:52:11;10.07;;;4.93;;
84780;SDS011;75011;50.086;19.886;2023-12-20T01:55:13;9.82;;;5.32;;
84780;SDS011;75011;50.086;19.886;2023-12-20T01:58:14;11.23;;;5.10;;
84780;SDS011;75011;50.086;19.886;2023-12-20T02:01:15;12.18;;;5.68;;
84780;SDS011;75011;50.086;19.886;2023-12-20T02:04:16;11.13;;;5.28;;
84780;SDS011;75011;50.086;19.886;2023-12-20T02:07:17;10.68;;;4.75;;
84780;SDS011;75011;50.086;19.886;2023-12-20T02:10:20;12.18;;;4.88;;
84780;SDS011;75011;50.086;19.886;2023-12-20T02:13:21;9.07;;;4.13;;
84780;SDS011;75011;50.086;19.886;2023-12-20T02:16:21;13.30;;;4.28;;
84780;SDS011;75011;50.086;19.886;2023-12-20T02:19:22;10.50;;;4.28;;
84780;SDS011;75011;50.086;19.886;2023-12-20T02:22:24;9.55;;;4.93;;
84780;SDS011;75011;50.086;19.886;2023-12-20T02:25:24;11.32;;;4.75;;
84780;SDS011;75011;50.086;19.886;2023-12-20T02:28:25;11.63;;;4.70;;
84780;SDS011;75011;50.086;19.886;2023-12-20T02:31:26;10.13;;;4.22;;
84780;SDS011;75011;50.086;19.886;2023-12-20T02:34:26;11.27;;;4.45;;
84780;SDS011;75011;50.086;19.886;2023-12-20T02:37:28;8.75;;;3.97;;
84780;SDS011;75011;50.086;19.886;2023-12-20T02:40:29;8.98;;;4.45;;
84780;SDS011;75011;50.086;19.886;2023-12-20T02:43:29;7.10;;;3.47;;
84780;SDS011;75011;50.086;19.886;2023-12-20T02:46:30;8.05;;;3.90;;
84780;SDS011;75011;50.086;19.886;2023-12-20T02:49:30;9.95;;;5.32;;
84780;SDS011;75011;50.086;19.886;2023-12-20T02:52:32;8.65;;;3.53;;
84780;SDS011;75011;50.086;19.886;2023-12-20T02:55:32;9.75;;;3.45;;
84780;SDS011;75011;50.086;19.886;2023-12-20T02:58:33;8.55;;;3.22;;
84780;SDS011;75011;50.086;19.886;2023-12-20T03:01:34;9.20;;;3.83;;
84780;SDS011;75011;50.086;19.886;2023-12-20T03:04:34;8.43;;;3.95;;
84780;SDS011;75011;50.086;19.886;2023-12-20T03:07:37;7.43;;;3.35;;
84780;SDS011;75011;50.086;19.886;2023-12-20T03:10:38;9.48;;;3.95;;
84780;SDS011;75011;50.086;19.886;2023-12-20T03:13:38;7.63;;;3.92;;
84780;SDS011;75011;50.086;19.886;2023-12-20T03:16:39;8.60;;;3.78;;
84780;SDS011;75011;50.086;19.886;2023-12-20T03:19:39;7.25;;;3.67;;
84780;SDS011;75011;50.086;19.886;2023-12-20T03:22:41;6.43;;;3.58;;
84780;SDS011;75011;50.086;19.886;2023-12-20T03:25:47;7.40;;;3.50;;
84780;SDS011;75011;50.086;19.886;2023-12-20T03:28:48;7.22;;;3.20;;
84780;SDS011;75011;50.086;19.886;2023-12-20T03:31:48;8.05;;;3.42;;
84780;SDS011;75011;50.086;19.886;2023-12-20T03:34:49;6.68;;;3.30;;
84780;SDS011;75011;50.086;19.886;2023-12-20T03:37:50;6.68;;;3.40;;
84780;SDS011;75011;50.086;19.886;2023-12-20T03:40:51;7.45;;;3.50;;
84780;SDS011;75011;50.086;19.886;2023-12-20T03:43:52;6.65;;;3.28;;
84780;SDS011;75011;50.086;19.886;2023-12-20T03:46:52;8.43;;;3.65;;
84780;SDS011;75011;50.086;19.886;2023-12-20T03:49:53;7.85;;;3.78;;
84780;SDS011;75011;50.086;19.886;2023-12-20T03:52:55;10.13;;;4.35;;
84780;SDS011;75011;50.086;19.886;2023-12-20T03:55:55;10.05;;;4.55;;
84780;SDS011;75011;50.086;19.886;2023-12-20T03:58:56;7.72;;;3.80;;
84780;SDS011;75011;50.086;19.886;2023-12-20T04:01:56;7.55;;;3.10;;
84780;SDS011;75011;50.086;19.886;2023-12-20T04:04:57;8.18;;;3.88;;
84780;SDS011;75011;50.086;19.886;2023-12-20T04:07:59;8.25;;;3.40;;
84780;SDS011;75011;50.086;19.886;2023-12-20T04:11:00;7.75;;;3.78;;
84780;SDS011;75011;50.086;19.886;2023-12-20T04:14:00;7.60;;;3.72;;
84780;SDS011;75011;50.086;19.886;2023-12-20T04:17:00;7.25;;;3.22;;
84780;SDS011;75011;50.086;19.886;2023-12-20T04:20:01;7.05;;;3.42;;
84780;SDS011;75011;50.086;19.886;2023-12-20T04:23:03;7.38;;;3.40;;
84780;SDS011;75011;50.086;19.886;2023-12-20T04:26:04;6.35;;;2.97;;
84780;SDS011;75011;50.086;19.886;2023-12-20T04:29:04;5.60;;;2.97;;
84780;SDS011;75011;50.086;19.886;2023-12-20T04:32:05;7.10;;;3.00;;
84780;SDS011;75011;50.086;19.886;2023-12-20T04:35:06;6.13;;;2.90;;
84780;SDS011;75011;50.086;19.886;2023-12-20T04:38:08;6.22;;;3.33;;
84780;SDS011;75011;50.086;19.886;2023-12-20T04:41:09;4.28;;;2.25;;
84780;SDS011;75011;50.086;19.886;2023-12-20T04:44:09;4.10;;;2.33;;
84780;SDS011;75011;50.086;19.886;2023-12-20T04:47:10;4.78;;;2.92;;
84780;SDS011;75011;50.086;19.886;2023-12-20T04:50:10;4.05;;;1.95;;
84780;SDS011;75011;50.086;19.886;2023-12-20T04:53:12;3.67;;;1.80;;
84780;SDS011;75011;50.086;19.886;2023-12-20T04:56:13;4.43;;;1.92;;
84780;SDS011;75011;50.086;19.886;2023-12-20T04:59:13;4.65;;;2.33;;
84780;SDS011;75011;50.086;19.886;2023-12-20T05:02:14;5.20;;;1.73;;
84780;SDS011;75011;50.086;19.886;2023-12-20T05:05:14;4.43;;;1.83;;
84780;SDS011;75011;50.086;19.886;2023-12-20T05:08:16;3.53;;;1.30;;
84780;SDS011;75011;50.086;19.886;2023-12-20T05:11:16;2.22;;;0.95;;
84780;SDS011;75011;50.086;19.886;2023-12-20T05:14:17;2.53;;;1.30;;
84780;SDS011;75011;50.086;19.886;2023-12-20T05:17:17;2.83;;;1.42;;
84780;SDS011;75011;50.086;19.886;2023-12-20T05:20:18;2.20;;;1.33;;
84780;SDS011;75011;50.086;19.886;2023-12-20T05:23:20;3.78;;;1.33;;
84780;SDS011;75011;50.086;19.886;2023-12-20T05:26:20;4.78;;;1.67;;
84780;SDS011;75011;50.086;19.886;2023-12-20T05:29:21;2.60;;;1.08;;
84780;SDS011;75011;50.086;19.886;2023-12-20T05:32:21;3.35;;;1.55;;
84780;SDS011;75011;50.086;19.886;2023-12-20T05:35:22;3.08;;;1.60;;
84780;SDS011;75011;50.086;19.886;2023-12-20T05:38:24;1.98;;;0.93;;
84780;SDS011;75011;50.086;19.886;2023-12-20T05:41:24;2.65;;;0.98;;
84780;SDS011;75011;50.086;19.886;2023-12-20T05:44:25;3.33;;;1.90;;
84780;SDS011;75011;50.086;19.886;2023-12-20T05:47:25;4.97;;;2.40;;
84780;SDS011;75011;50.086;19.886;2023-12-20T05:50:26;3.72;;;1.80;;
84780;SDS011;75011;50.086;19.886;2023-12-20T05:53:28;2.38;;;1.48;;
84780;SDS011;75011;50.086;19.886;2023-12-20T05:56:28;4.18;;;2.20;;
84780;SDS011;75011;50.086;19.886;2023-12-20T05:59:29;4.07;;;2.05;;
84780;SDS011;75011;50.086;19.886;2023-12-20T06:02:29;3.78;;;2.13;;
84780;SDS011;75011;50.086;19.886;2023-12-20T06:05:30;3.47;;;1.65;;
84780;SDS011;75011;50.086;19.886;2023-12-20T06:08:31;2.88;;;1.40;;
84780;SDS011;75011;50.086;19.886;2023-12-20T06:11:32;5.68;;;2.78;;
84780;SDS011;75011;50.086;19.886;2023-12-20T06:14:32;5.00;;;2.30;;
84780;SDS011;75011;50.086;19.886;2023-12-20T06:17:33;4.88;;;2.28;;
84780;SDS011;75011;50.086;19.886;2023-12-20T06:20:33;5.38;;;2.83;;
84780;SDS011;75011;50.086;19.886;2023-12-20T06:23:35;5.50;;;3.17;;
84780;SDS011;75011;50.086;19.886;2023-12-20T06:26:36;4.80;;;2.60;;
84780;SDS011;75011;50.086;19.886;2023-12-20T06:29:36;6.72;;;3.92;;
84780;SDS011;75011;50.086;19.886;2023-12-20T06:32:37;4.13;;;2.65;;
84780;SDS011;75011;50.086;19.886;2023-12-20T06:35:37;5.93;;;2.97;;
84780;SDS011;75011;50.086;19.886;2023-12-20T06:38:39;6.28;;;3.45;;
84780;SDS011;75011;50.086;19.886;2023-12-20T06:41:40;6.50;;;3.30;;
84780;SDS011;75011;50.086;19.886;2023-12-20T06:44:40;8.63;;;4.40;;
84780;SDS011;75011;50.086;19.886;2023-12-20T06:47:41;7.65;;;4.30;;
84780;SDS011;75011;50.086;19.886;2023-12-20T06:50:41;6.97;;;4.25;;
84780;SDS011;75011;50.086;19.886;2023-12-20T06:53:43;5.13;;;2.88;;
84780;SDS011;75011;50.086;19.886;2023-12-20T06:56:44;5.97;;;3.47;;
84780;SDS011;75011;50.086;19.886;2023-12-20T06:59:50;8.32;;;4.78;;
84780;SDS011;75011;50.086;19.886;2023-12-20T07:02:53;9.73;;;4.90;;
84780;SDS011;75011;50.086;19.886;2023-12-20T07:05:53;6.85;;;4.20;;
84780;SDS011;75011;50.086;19.886;2023-12-20T07:08:55;8.48;;;4.38;;
84780;SDS011;75011;50.086;19.886;2023-12-20T07:11:56;9.23;;;5.15;;
84780;SDS011;75011;50.086;19.886;2023-12-20T07:14:56;9.52;;;4.22;;
84780;SDS011;75011;50.086;19.886;2023-12-20T07:17:56;7.47;;;4.00;;
84780;SDS011;75011;50.086;19.886;2023-12-20T07:20:57;8.18;;;4.28;;
84780;SDS011;75011;50.086;19.886;2023-12-20T07:23:59;9.23;;;4.55;;
84780;SDS011;75011;50.086;19.886;2023-12-20T07:26:59;6.95;;;3.42;;
84780;SDS011;75011;50.086;19.886;2023-12-20T07:30:00;4.07;;;2.42;;
84780;SDS011;75011;50.086;19.886;2023-12-20T07:33:01;5.28;;;3.28;;
84780;SDS011;75011;50.086;19.886;2023-12-20T07:36:02;5.90;;;3.13;;
84780;SDS011;75011;50.086;19.886;2023-12-20T07:39:04;9.88;;;4.65;;
84780;SDS011;75011;50.086;19.886;2023-12-20T07:42:04;6.18;;;3.38;;
84780;SDS011;75011;50.086;19.886;2023-12-20T07:45:05;6.63;;;3.85;;
84780;SDS011;75011;50.086;19.886;2023-12-20T09:06:45;8.70;;;5.28;;
84780;SDS011;75011;50.086;19.886;2023-12-20T09:09:46;9.13;;;5.20;;
84780;SDS011;75011;50.086;19.886;2023-12-20T09:12:46;6.60;;;4.38;;
84780;SDS011;75011;50.086;19.886;2023-12-20T09:15:46;5.93;;;3.55;;
84780;SDS011;75011;50.086;19.886;2023-12-20T09:18:47;5.53;;;3.30;;
84780;SDS011;75011;50.086;19.886;2023-12-20T09:21:49;5.15;;;3.20;;
84780;SDS011;75011;50.086;19.886;2023-12-20T09:24:49;5.25;;;3.80;;
84780;SDS011;75011;50.086;19.886;2023-12-20T09:27:50;7.13;;;3.90;;
84780;SDS011;75011;50.086;19.886;2023-12-20T09:30:50;6.07;;;3.78;;
84780;SDS011;75011;50.086;19.886;2023-12-20T09:33:51;4.63;;;3.28;;
84780;SDS011;75011;50.086;19.886;2023-12-20T09:36:52;6.22;;;3.92;;
84780;SDS011;75011;50.086;19.886;2023-12-20T09:39:53;5.00;;;3.47;;
84780;SDS011;75011;50.086;19.886;2023-12-20T09:42:56;5.68;;;3.67;;
84780;SDS011;75011;50.086;19.886;2023-12-20T09:45:59;5.30;;;3.33;;
84780;SDS011;75011;50.086;19.886;2023-12-20T09:49:03;5.95;;;4.60;;
84780;SDS011;75011;50.086;19.886;2023-12-20T09:52:07;5.85;;;3.90;;
84780;SDS011;75011;50.086;19.886;2023-12-20T09:55:09;5.15;;;3.80;;
84780;SDS011;75011;50.086;19.886;2023-12-20T09:58:10;5.10;;;3.30;;
84780;SDS011;75011;50.086;19.886;2023-12-20T10:01:10;5.72;;;3.22;;
84780;SDS011;75011;50.086;19.886;2023-12-20T10:04:11;4.45;;;2.95;;
84780;SDS011;75011;50.086;19.886;2023-12-20T10:07:15;5.43;;;3.45;;
84780;SDS011;75011;50.086;19.886;2023-12-20T10:10:15;5.15;;;3.50;;
84780;SDS011;75011;50.086;19.886;2023-12-20T10:13:16;5.57;;;3.42;;
84780;SDS011;75011;50.086;19.886;2023-12-20T10:16:16;4.35;;;3.30;;
84780;SDS011;75011;50.086;19.886;2023-12-20T10:19:17;5.78;;;4.03;;
84780;SDS011;75011;50.086;19.886;2023-12-20T10:22:19;5.45;;;3.42;;
84780;SDS011;75011;50.086;19.886;2023-12-20T10:25:19;4.60;;;3.25;;
84780;SDS011;75011;50.086;19.886;2023-12-20T10:28:20;4.43;;;2.95;;
84780;SDS011;75011;50.086;19.886;2023-12-20T10:31:27;3.83;;;2.75;;
84780;SDS011;75011;50.086;19.886;2023-12-20T10:34:28;4.65;;;3.08;;
84780;SDS011;75011;50.086;19.886;2023-12-20T10:37:30;6.85;;;3.03;;
84780;SDS011;75011;50.086;19.886;2023-12-20T10:40:30;4.72;;;3.97;;
84780;SDS011;75011;50.086;19.886;2023-12-20T10:43:34;4.57;;;2.63;;
84780;SDS011;75011;50.086;19.886;2023-12-20T10:46:34;4.45;;;3.13;;
84780;SDS011;75011;50.086;19.886;2023-12-20T10:49:36;5.25;;;2.65;;
84780;SDS011;75011;50.086;19.886;2023-12-20T10:52:38;4.28;;;2.75;;
84780;SDS011;75011;50.086;19.886;2023-12-20T10:55:41;3.75;;;2.38;;
84780;SDS011;75011;50.086;19.886;2023-12-20T10:58:43;4.88;;;2.78;;
84780;SDS011;75011;50.086;19.886;2023-12-20T11:01:44;3.97;;;2.45;;
84780;SDS011;75011;50.086;19.886;2023-12-20T11:04:49;2.90;;;2.00;;
84780;SDS011;75011;50.086;19.886;2023-12-20T11:07:55;3.65;;;2.40;;
84780;SDS011;75011;50.086;19.886;2023-12-20T11:11:02;3.90;;;2.92;;
84780;SDS011;75011;50.086;19.886;2023-12-20T11:14:06;4.05;;;2.38;;
84780;SDS011;75011;50.086;19.886;2023-12-20T11:17:09;4.90;;;2.28;;
84780;SDS011;75011;50.086;19.886;2023-12-20T11:20:10;3.03;;;2.10;;
84780;SDS011;75011;50.086;19.886;2023-12-20T11:23:12;3.88;;;2.17;;
84780;SDS011;75011;50.086;19.886;2023-12-20T11:26:15;4.88;;;1.75;;
84780;SDS011;75011;50.086;19.886;2023-12-20T11:29:31;2.80;;;1.77;;
84780;SDS011;75011;50.086;19.886;2023-12-20T11:32:33;3.33;;;2.20;;
84780;SDS011;75011;50.086;19.886;2023-12-20T11:35:34;3.78;;;2.33;;
84780;SDS011;75011;50.086;19.886;2023-12-20T11:41:38;3.35;;;2.13;;
84780;SDS011;75011;50.086;19.886;2023-12-20T11:44:39;3.97;;;2.22;;
84780;SDS011;75011;50.086;19.886;2023-12-20T11:47:43;3.25;;;2.13;;
84780;SDS011;75011;50.086;19.886;2023-12-20T11:53:52;4.60;;;1.90;;
84780;SDS011;75011;50.086;19.886;2023-12-20T11:56:52;3.35;;;2.35;;
84780;SDS011;75011;50.086;19.886;2023-12-20T11:59:53;3.13;;;1.73;;
84780;SDS011;75011;50.086;19.886;2023-12-20T12:02:57;3.10;;;2.15;;
84780;SDS011;75011;50.086;19.886;2023-12-20T12:05:58;5.72;;;2.00;;
84780;SDS011;75011;50.086;19.886;2023-12-20T12:09:00;4.03;;;2.28;;
84780;SDS011;75011;50.086;19.886;2023-12-20T12:12:00;2.97;;;1.75;;
84780;SDS011;75011;50.086;19.886;2023-12-20T12:15:01;4.55;;;1.85;;
84780;SDS011;75011;50.086;19.886;2023-12-20T12:18:02;2.60;;;1.63;;
84780;SDS011;75011;50.086;19.886;2023-12-20T12:21:03;3.35;;;2.08;;
84780;SDS011;75011;50.086;19.886;2023-12-20T12:24:07;3.35;;;1.63;;
84780;SDS011;75011;50.086;19.886;2023-12-20T12:27:08;2.80;;;1.55;;
84780;SDS011;75011;50.086;19.886;2023-12-20T12:30:09;3.25;;;1.80;;
84780;SDS011;75011;50.086;19.886;2023-12-20T12:33:10;3.47;;;1.55;;
84780;SDS011;75011;50.086;19.886;2023-12-20T12:36:12;4.47;;;1.98;;
84780;SDS011;75011;50.086;19.886;2023-12-20T12:39:14;3.17;;;2.00;;
84780;SDS011;75011;50.086;19.886;2023-12-20T12:42:15;2.95;;;1.63;;
84780;SDS011;75011;50.086;19.886;2023-12-20T12:45:16;3.50;;;2.53;;
84780;SDS011;75011;50.086;19.886;2023-12-20T12:48:16;3.67;;;2.03;;
84780;SDS011;75011;50.086;19.886;2023-12-20T12:51:17;3.03;;;1.95;;
84780;SDS011;75011;50.086;19.886;2023-12-20T12:54:19;3.65;;;2.25;;
84780;SDS011;75011;50.086;19.886;2023-12-20T12:57:19;4.07;;;2.25;;
84780;SDS011;75011;50.086;19.886;2023-12-20T13:00:20;3.47;;;2.15;;
84780;SDS011;75011;50.086;19.886;2023-12-20T13:03:21;3.30;;;2.03;;
84780;SDS011;75011;50.086;19.886;2023-12-20T13:06:21;2.92;;;1.63;;
84780;SDS011;75011;50.086;19.886;2023-12-20T13:09:23;2.95;;;2.17;;
84780;SDS011;75011;50.086;19.886;2023-12-20T13:12:24;3.40;;;1.98;;
84780;SDS011;75011;50.086;19.886;2023-12-20T13:15:24;3.75;;;2.35;;
84780;SDS011;75011;50.086;19.886;2023-12-20T13:18:25;2.88;;;1.77;;
84780;SDS011;75011;50.086;19.886;2023-12-20T13:21:25;4.22;;;2.15;;
84780;SDS011;75011;50.086;19.886;2023-12-20T13:24:27;3.65;;;2.08;;
84780;SDS011;75011;50.086;19.886;2023-12-20T13:27:28;3.80;;;2.17;;
84780;SDS011;75011;50.086;19.886;2023-12-20T13:30:28;4.13;;;3.10;;
84780;SDS011;75011;50.086;19.886;2023-12-20T13:33:29;4.03;;;2.05;;
84780;SDS011;75011;50.086;19.886;2023-12-20T13:36:29;3.90;;;2.20;;
84780;SDS011;75011;50.086;19.886;2023-12-20T13:39:31;3.47;;;2.15;;
84780;SDS011;75011;50.086;19.886;2023-12-20T13:42:32;3.78;;;2.67;;
84780;SDS011;75011;50.086;19.886;2023-12-20T13:45:32;3.75;;;2.25;;
84780;SDS011;75011;50.086;19.886;2023-12-20T13:48:33;4.90;;;2.35;;
84780;SDS011;75011;50.086;19.886;2023-12-20T13:51:33;4.15;;;2.25;;
84780;SDS011;75011;50.086;19.886;2023-12-20T13:54:35;3.88;;;1.83;;
84780;SDS011;75011;50.086;19.886;2023-12-20T13:57:36;4.25;;;2.47;;
84780;SDS011;75011;50.086;19.886;2023-12-20T14:00:36;5.38;;;3.42;;
84780;SDS011;75011;50.086;19.886;2023-12-20T14:03:37;4.75;;;2.05;;
84780;SDS011;75011;50.086;19.886;2023-12-20T14:06:37;4.25;;;1.90;;
84780;SDS011;75011;50.086;19.886;2023-12-20T14:09:39;4.00;;;2.40;;
84780;SDS011;75011;50.086;19.886;2023-12-20T14:12:40;4.50;;;2.58;;
84780;SDS011;75011;50.086;19.886;2023-12-20T14:15:41;4.35;;;2.58;;
84780;SDS011;75011;50.086;19.886;2023-12-20T14:18:41;5.20;;;2.88;;
84780;SDS011;75011;50.086;19.886;2023-12-20T14:21:42;3.55;;;2.55;;
84780;SDS011;75011;50.086;19.886;2023-12-20T14:24:44;4.30;;;2.83;;
84780;SDS011;75011;50.086;19.886;2023-12-20T14:27:45;3.97;;;2.30;;
84780;SDS011;75011;50.086;19.886;2023-12-20T14:30:45;3.85;;;2.22;;
84780;SDS011;75011;50.086;19.886;2023-12-20T14:33:46;5.20;;;3.05;;
84780;SDS011;75011;50.086;19.886;2023-12-20T14:36:46;3.47;;;2.38;;
84780;SDS011;75011;50.086;19.886;2023-12-20T14:39:48;4.45;;;2.58;;
84780;SDS011;75011;50.086;19.886;2023-12-20T14:42:48;4.60;;;2.30;;
84780;SDS011;75011;50.086;19.886;2023-12-20T14:45:49;4.95;;;2.53;;
84780;SDS011;75011;50.086;19.886;2023-12-20T14:48:50;4.60;;;2.88;;
84780;SDS011;75011;50.086;19.886;2023-12-20T14:51:50;4.78;;;2.88;;
84780;SDS011;75011;50.086;19.886;2023-12-20T14:54:52;6.38;;;3.03;;
84780;SDS011;75011;50.086;19.886;2023-12-20T14:57:53;5.00;;;2.42;;
84780;SDS011;75011;50.086;19.886;2023-12-20T15:00:53;4.03;;;2.08;;
84780;SDS011;75011;50.086;19.886;2023-12-20T15:03:54;3.42;;;1.98;;
84780;SDS011;75011;50.086;19.886;2023-12-20T15:06:54;4.43;;;2.95;;
84780;SDS011;75011;50.086;19.886;2023-12-20T15:09:56;4.80;;;2.50;;
84780;SDS011;75011;50.086;19.886;2023-12-20T15:12:57;4.28;;;2.70;;
84780;SDS011;75011;50.086;19.886;2023-12-20T15:15:57;4.85;;;3.22;;
84780;SDS011;75011;50.086;19.886;2023-12-20T15:18:58;5.53;;;3.53;;
84780;SDS011;75011;50.086;19.886;2023-12-20T15:21:58;3.92;;;2.58;;
84780;SDS011;75011;50.086;19.886;2023-12-20T15:25:00;4.55;;;2.65;;
84780;SDS011;75011;50.086;19.886;2023-12-20T15:28:01;5.07;;;2.78;;
84780;SDS011;75011;50.086;19.886;2023-12-20T15:31:01;4.90;;;2.80;;
84780;SDS011;75011;50.086;19.886;2023-12-20T15:34:02;4.20;;;2.47;;
84780;SDS011;75011;50.086;19.886;2023-12-20T15:37:03;5.50;;;2.97;;
84780;SDS011;75011;50.086;19.886;2023-12-20T15:40:06;5.05;;;3.33;;
84780;SDS011;75011;50.086;19.886;2023-12-20T15:43:08;5.22;;;3.10;;
84780;SDS011;75011;50.086;19.886;2023-12-20T15:46:09;6.68;;;3.30;;
84780;SDS011;75011;50.086;19.886;2023-12-20T15:49:09;6.25;;;3.00;;
84780;SDS011;75011;50.086;19.886;2023-12-20T15:52:10;4.63;;;3.00;;
84780;SDS011;75011;50.086;19.886;2023-12-20T15:55:12;6.55;;;3.65;;
84780;SDS011;75011;50.086;19.886;2023-12-20T15:58:12;6.18;;;3.55;;
84780;SDS011;75011;50.086;19.886;2023-12-20T16:01:12;5.35;;;3.55;;
84780;SDS011;75011;50.086;19.886;2023-12-20T16:04:13;5.93;;;3.72;;
84780;SDS011;75011;50.086;19.886;2023-12-20T16:07:13;6.03;;;3.53;;
84780;SDS011;75011;50.086;19.886;2023-12-20T16:10:15;6.20;;;3.55;;
84780;SDS011;75011;50.086;19.886;2023-12-20T16:13:16;5.22;;;3.25;;
84780;SDS011;75011;50.086;19.886;2023-12-20T16:16:16;6.88;;;4.18;;
84780;SDS011;75011;50.086;19.886;2023-12-20T16:19:17;7.00;;;3.65;;
84780;SDS011;75011;50.086;19.886;2023-12-20T16:22:17;6.32;;;4.50;;
84780;SDS011;75011;50.086;19.886;2023-12-20T16:25:19;7.82;;;4.63;;
84780;SDS011;75011;50.086;19.886;2023-12-20T16:28:20;5.63;;;3.75;;
84780;SDS011;75011;50.086;19.886;2023-12-20T16:31:20;6.72;;;4.47;;
84780;SDS011;75011;50.086;19.886;2023-12-20T16:34:21;6.63;;;4.13;;
84780;SDS011;75011;50.086;19.886;2023-12-20T16:37:21;6.13;;;3.85;;
84780;SDS011;75011;50.086;19.886;2023-12-20T16:40:23;6.45;;;3.83;;
84780;SDS011;75011;50.086;19.886;2023-12-20T16:43:24;7.28;;;3.95;;
84780;SDS011;75011;50.086;19.886;2023-12-20T16:46:25;5.30;;;3.97;;
84780;SDS011;75011;50.086;19.886;2023-12-20T16:49:25;7.38;;;3.85;;
84780;SDS011;75011;50.086;19.886;2023-12-20T16:52:26;5.80;;;3.70;;
84780;SDS011;75011;50.086;19.886;2023-12-20T16:55:28;6.82;;;4.28;;
84780;SDS011;75011;50.086;19.886;2023-12-20T16:58:28;7.60;;;4.35;;
84780;SDS011;75011;50.086;19.886;2023-12-20T17:01:28;7.25;;;4.47;;
84780;SDS011;75011;50.086;19.886;2023-12-20T17:04:29;7.13;;;4.15;;
84780;SDS011;75011;50.086;19.886;2023-12-20T17:07:29;6.90;;;4.20;;
84780;SDS011;75011;50.086;19.886;2023-12-20T17:10:31;6.78;;;4.25;;
84780;SDS011;75011;50.086;19.886;2023-12-20T17:13:32;7.18;;;4.68;;
84780;SDS011;75011;50.086;19.886;2023-12-20T17:16:32;7.75;;;4.40;;
84780;SDS011;75011;50.086;19.886;2023-12-20T17:19:33;7.70;;;3.88;;
84780;SDS011;75011;50.086;19.886;2023-12-20T17:22:33;7.10;;;4.50;;
84780;SDS011;75011;50.086;19.886;2023-12-20T17:25:35;8.05;;;4.00;;
84780;SDS011;75011;50.086;19.886;2023-12-20T17:28:36;6.78;;;3.90;;
84780;SDS011;75011;50.086;19.886;2023-12-20T17:31:36;6.35;;;3.97;;
84780;SDS011;75011;50.086;19.886;2023-12-20T17:34:36;6.80;;;3.95;;
84780;SDS011;75011;50.086;19.886;2023-12-20T17:37:37;7.80;;;4.38;;
84780;SDS011;75011;50.086;19.886;2023-12-20T17:40:39;6.63;;;4.30;;
84780;SDS011;75011;50.086;19.886;2023-12-20T17:43:39;6.18;;;3.83;;
84780;SDS011;75011;50.086;19.886;2023-12-20T17:46:40;7.18;;;3.85;;
84780;SDS011;75011;50.086;19.886;2023-12-20T17:49:40;6.18;;;3.80;;
84780;SDS011;75011;50.086;19.886;2023-12-20T17:52:41;6.80;;;3.80;;
84780;SDS011;75011;50.086;19.886;2023-12-20T17:55:43;5.95;;;3.05;;
84780;SDS011;75011;50.086;19.886;2023-12-20T17:58:43;5.95;;;3.97;;
84780;SDS011;75011;50.086;19.886;2023-12-20T18:01:44;6.70;;;3.80;;
84780;SDS011;75011;50.086;19.886;2023-12-20T18:04:44;6.65;;;3.55;;
84780;SDS011;75011;50.086;19.886;2023-12-20T18:07:45;6.80;;;4.20;;
84780;SDS011;75011;50.086;19.886;2023-12-20T18:10:46;6.25;;;3.97;;
84780;SDS011;75011;50.086;19.886;2023-12-20T18:13:47;6.43;;;4.05;;
84780;SDS011;75011;50.086;19.886;2023-12-20T18:16:47;6.32;;;3.92;;
84780;SDS011;75011;50.086;19.886;2023-12-20T18:19:48;6.32;;;3.40;;
84780;SDS011;75011;50.086;19.886;2023-12-20T18:22:48;6.53;;;4.20;;
84780;SDS011;75011;50.086;19.886;2023-12-20T18:25:50;6.80;;;3.83;;
84780;SDS011;75011;50.086;19.886;2023-12-20T18:28:50;6.20;;;3.40;;
84780;SDS011;75011;50.086;19.886;2023-12-20T18:31:51;7.68;;;4.88;;
84780;SDS011;75011;50.086;19.886;2023-12-20T18:34:51;6.53;;;3.67;;
84780;SDS011;75011;50.086;19.886;2023-12-20T18:37:52;6.28;;;3.92;;
84780;SDS011;75011;50.086;19.886;2023-12-20T18:40:54;6.03;;;3.35;;
84780;SDS011;75011;50.086;19.886;2023-12-20T18:43:54;5.68;;;3.05;;
84780;SDS011;75011;50.086;19.886;2023-12-20T18:46:54;6.15;;;3.17;;
84780;SDS011;75011;50.086;19.886;2023-12-20T18:49:55;5.88;;;3.72;;
84780;SDS011;75011;50.086;19.886;2023-12-20T18:52:55;6.30;;;3.95;;
84780;SDS011;75011;50.086;19.886;2023-12-20T18:55:57;6.53;;;3.25;;
84780;SDS011;75011;50.086;19.886;2023-12-20T18:58:58;6.18;;;3.38;;
84780;SDS011;75011;50.086;19.886;2023-12-20T19:01:59;7.32;;;3.47;;
84780;SDS011;75011;50.086;19.886;2023-12-20T19:04:59;6.30;;;3.17;;
84780;SDS011;75011;50.086;19.886;2023-12-20T19:07:59;5.60;;;3.15;;
84780;SDS011;75011;50.086;19.886;2023-12-20T19:11:01;5.97;;;3.17;;
84780;SDS011;75011;50.086;19.886;2023-12-20T19:14:02;5.15;;;2.40;;
84780;SDS011;75011;50.086;19.886;2023-12-20T19:17:03;6.53;;;3.78;;